Terminal Aerodrome Forecast
Issued by NWS Charleston, WV

Current Version | Previous Version | Graphics & Text | Print | Product List | Glossary On
Versions: 1 2 3 4 5 6 7 8 9 10 11 12 13 14 15 16 17 18 19 20 21 22 23
000
FTUS41 KRLX 121305 AAA
TAFPKB
TAF AMD
KPKB 121305Z 1213/1312 27011G20KT 5SM -SHSN OVC020
      TEMPO 1213/1215 2SM -SN BKN010
     FM121700 29012G24KT P6SM BKN035
     FM122000 29010G22KT 3SM -SHSN BKN010 OVC025
     FM130300 29009G20KT P6SM BKN035
     FM130600 28010G19KT P6SM SCT035=

USA.gov is the U.S. government's official web portal to all federal, state and local government web resources and services.